createdAt,value
2018-09-18T00:02:14.483Z,54.00
2018-09-18T00:04:44.864Z,54.00
2018-09-18T00:07:14.462Z,54.00
2018-09-18T00:09:43.901Z,54.00
2018-09-18T00:12:13.410Z,54.00
2018-09-18T00:14:43.583Z,54.00
2018-09-18T00:17:13.205Z,54.00
2018-09-18T00:19:42.950Z,54.00
2018-09-18T00:22:12.776Z,54.00
2018-09-18T00:24:42.382Z,54.00
2018-09-18T00:27:11.966Z,54.00
2018-09-18T00:29:41.476Z,54.10
2018-09-18T00:32:12.283Z,54.00
2018-09-18T00:34:42.128Z,54.00
2018-09-18T00:37:12.239Z,54.10
2018-09-18T00:39:41.748Z,54.70
2018-09-18T00:42:11.460Z,54.10
2018-09-18T00:44:49.258Z,54.10
2018-09-18T00:47:19.101Z,54.10
2018-09-18T00:49:49.571Z,54.10
2018-09-18T00:52:19.821Z,54.00
2018-09-18T00:54:49.365Z,54.00
2018-09-18T00:57:19.150Z,54.10
2018-09-18T00:59:50.507Z,54.20
2018-09-18T01:02:20.314Z,54.30
2018-09-18T01:04:56.022Z,54.30
2018-09-18T01:07:25.759Z,54.30
2018-09-18T01:09:56.718Z,54.30
2018-09-18T01:12:27.040Z,54.40
2018-09-18T01:14:56.885Z,54.50
2018-09-18T01:17:27.437Z,54.50
2018-09-18T01:19:59.436Z,54.50
2018-09-18T01:22:29.472Z,54.50
2018-09-18T01:24:59.084Z,54.60
2018-09-18T01:27:28.630Z,54.70
2018-09-18T01:29:58.177Z,54.70
2018-09-18T01:32:27.648Z,54.80
2018-09-18T01:34:59.149Z,54.80
2018-09-18T01:37:29.409Z,55.00
2018-09-18T01:39:59.837Z,55.60
2018-09-18T01:42:29.914Z,55.10
2018-09-18T01:45:01.278Z,55.20
2018-09-18T01:47:31.873Z,55.90
2018-09-18T01:50:02.704Z,55.20
2018-09-18T01:52:32.445Z,55.30
2018-09-18T01:55:02.340Z,55.30
2018-09-18T01:57:34.317Z,55.40
2018-09-18T02:00:05.416Z,55.50
2018-09-18T02:02:36.049Z,55.50
2018-09-18T02:05:05.645Z,55.60
2018-09-18T02:07:35.165Z,55.60
2018-09-18T02:10:06.985Z,55.60
2018-09-18T02:12:36.427Z,55.60
2018-09-18T02:15:06.590Z,55.70
2018-09-18T02:17:36.190Z,55.80
2018-09-18T02:20:06.491Z,55.90
2018-09-18T02:22:37.541Z,55.90
2018-09-18T02:25:07.458Z,56.00
2018-09-18T02:27:38.037Z,56.00
2018-09-18T02:30:08.431Z,56.10
2018-09-18T02:32:39.743Z,56.10
2018-09-18T02:35:09.863Z,56.10
2018-09-18T02:37:39.494Z,56.30
2018-09-18T02:40:09.380Z,56.30
2018-09-18T02:42:38.933Z,56.40
2018-09-18T02:45:08.428Z,56.50
2018-09-18T02:47:37.828Z,56.50
2018-09-18T02:50:07.267Z,56.60
2018-09-18T02:52:36.653Z,56.60
2018-09-18T02:55:06.979Z,56.80
2018-09-18T02:57:36.441Z,56.90
2018-09-18T03:00:07.374Z,56.90
2018-09-18T03:02:36.910Z,56.80
2018-09-18T03:05:06.458Z,56.80
2018-09-18T03:07:35.960Z,56.80
2018-09-18T03:10:05.716Z,56.80
2018-09-18T03:12:35.599Z,56.80
2018-09-18T03:15:06.317Z,56.90
2018-09-18T03:17:36.081Z,56.90
2018-09-18T03:20:06.151Z,56.90
2018-09-18T03:22:35.732Z,56.90
2018-09-18T03:25:06.039Z,56.90
2018-09-18T03:27:35.575Z,56.90
2018-09-18T03:30:05.353Z,56.90
2018-09-18T03:32:34.858Z,56.90
2018-09-18T03:35:04.934Z,56.90
2018-09-18T03:37:34.466Z,56.90
2018-09-18T03:40:04.295Z,56.80
2018-09-18T03:42:34.459Z,56.80
2018-09-18T03:45:04.701Z,56.80
2018-09-18T03:47:34.509Z,56.90
2018-09-18T03:50:03.961Z,57.00
2018-09-18T03:52:36.979Z,57.10
2018-09-18T03:55:06.543Z,57.10
2018-09-18T03:57:36.213Z,57.20
2018-09-18T04:00:05.828Z,57.20
2018-09-18T04:02:35.503Z,57.20
2018-09-18T04:05:07.915Z,57.30
2018-09-18T04:07:37.448Z,57.30
2018-09-18T04:10:07.599Z,57.30
2018-09-18T04:12:37.311Z,57.30
2018-09-18T04:15:07.160Z,57.30
2018-09-18T04:17:36.968Z,57.30
2018-09-18T04:20:06.574Z,57.30
2018-09-18T04:22:36.180Z,57.90
2018-09-18T04:25:07.339Z,57.30
2018-09-18T04:27:37.038Z,57.40
2018-09-18T04:30:06.709Z,57.50
2018-09-18T04:32:36.216Z,57.60
2018-09-18T04:35:07.220Z,57.50
2018-09-18T04:37:36.864Z,57.60
2018-09-18T04:40:06.926Z,57.60
2018-09-18T04:42:36.592Z,57.70
2018-09-18T04:45:06.978Z,57.70
2018-09-18T04:47:39.023Z,57.70
2018-09-18T04:50:08.774Z,57.80
2018-09-18T04:52:38.344Z,57.90
2018-09-18T04:55:07.907Z,57.90
2018-09-18T04:57:37.329Z,58.10
2018-09-18T05:00:08.513Z,58.00
2018-09-18T05:02:38.841Z,58.70
2018-09-18T05:05:09.193Z,58.10
2018-09-18T05:07:39.620Z,58.20
2018-09-18T05:10:09.483Z,58.20
2018-09-18T05:12:40.287Z,58.10
2018-09-18T05:15:10.897Z,58.30
2018-09-18T05:17:41.359Z,58.80
2018-09-18T05:20:11.995Z,58.20
2018-09-18T05:22:42.126Z,58.10
2018-09-18T05:25:11.785Z,58.20
2018-09-18T05:27:42.627Z,58.10
2018-09-18T05:30:12.407Z,58.10
2018-09-18T05:32:42.196Z,58.10
2018-09-18T05:35:11.785Z,58.10
2018-09-18T05:37:41.807Z,58.00
2018-09-18T05:40:11.345Z,58.10
2018-09-18T05:42:41.602Z,58.50
2018-09-18T05:45:11.311Z,57.90
2018-09-18T05:47:42.356Z,57.90
2018-09-18T05:50:14.766Z,57.90
2018-09-18T05:52:45.633Z,57.90
2018-09-18T05:55:17.646Z,57.90
2018-09-18T05:57:49.102Z,57.80
2018-09-18T06:00:19.017Z,57.80
2018-09-18T06:02:52.379Z,57.70
2018-09-18T06:05:29.306Z,57.60
2018-09-18T06:08:15.335Z,57.60
2018-09-18T06:11:00.844Z,57.70
2018-09-18T06:13:57.339Z,57.50
2018-09-18T06:16:42.137Z,57.40
2018-09-18T06:23:36.040Z,57.20
2018-09-18T06:26:07.259Z,57.00
2018-09-18T06:31:34.853Z,56.90
2018-09-18T06:34:06.001Z,56.90
2018-09-18T06:36:35.652Z,56.90
2018-09-18T06:39:11.412Z,56.60
2018-09-18T06:41:41.836Z,56.60
2018-09-18T06:44:11.906Z,56.60
2018-09-18T06:46:43.408Z,56.40
2018-09-18T06:49:14.118Z,56.40
2018-09-18T06:51:44.386Z,56.30
2018-09-18T06:54:13.806Z,56.20
2018-09-18T06:56:44.173Z,56.10
2018-09-18T06:59:13.724Z,55.90
2018-09-18T07:01:44.433Z,55.80
2018-09-18T07:04:13.894Z,56.40
2018-09-18T07:06:44.748Z,55.70
2018-09-18T07:09:14.495Z,55.60
2018-09-18T07:11:45.215Z,55.50
2018-09-18T07:14:15.562Z,55.50
2018-09-18T07:16:45.782Z,55.40
2018-09-18T07:19:15.905Z,55.30
2018-09-18T07:21:45.306Z,55.30
2018-09-18T07:24:14.724Z,55.30
2018-09-18T07:26:44.720Z,55.30
2018-09-18T07:29:14.900Z,55.10
2018-09-18T07:31:44.245Z,55.00
2018-09-18T07:34:13.723Z,54.90
2018-09-18T07:36:46.860Z,54.60
2018-09-18T07:39:16.385Z,54.50
2018-09-18T07:41:46.527Z,54.60
2018-09-18T07:47:12.901Z,54.50
2018-09-18T08:03:19.266Z,54.30
2018-09-18T08:05:48.701Z,54.40
2018-09-18T08:08:19.303Z,54.30
2018-09-18T08:10:50.063Z,54.20
2018-09-18T08:13:19.825Z,54.20
2018-09-18T08:15:49.535Z,54.10
2018-09-18T08:18:19.202Z,54.00
2018-09-18T08:20:49.586Z,53.80
2018-09-18T08:23:19.910Z,53.70
2018-09-18T08:25:49.518Z,53.60
2018-09-18T08:28:19.575Z,53.50
2018-09-18T08:30:49.391Z,53.20
2018-09-18T08:35:27.518Z,52.60
2018-09-18T08:37:59.366Z,52.80
2018-09-18T08:40:30.343Z,52.60
2018-09-18T08:43:00.494Z,52.60
2018-09-18T08:45:34.443Z,52.50
2018-09-18T08:48:04.601Z,52.40
2018-09-18T08:50:34.533Z,52.30
2018-09-18T08:53:05.098Z,52.00
2018-09-18T08:55:35.225Z,52.00
2018-09-18T08:58:07.602Z,52.50
2018-09-18T09:00:38.142Z,51.70
2018-09-18T09:03:09.650Z,51.50
2018-09-18T09:05:39.367Z,51.40
2018-09-18T09:08:10.136Z,51.20
2018-09-18T09:10:39.977Z,51.10
2018-09-18T09:13:11.056Z,50.90
2018-09-18T09:15:40.942Z,50.90
2018-09-18T09:18:11.708Z,50.80
2018-09-18T09:20:43.434Z,50.60
2018-09-18T09:23:14.171Z,50.50
2018-09-18T09:25:48.510Z,50.20
2018-09-18T09:28:19.217Z,50.00
2018-09-18T09:30:49.683Z,49.80
2018-09-18T09:33:24.099Z,49.70
2018-09-18T09:35:54.465Z,49.50
2018-09-18T09:38:24.618Z,49.20
2018-09-18T09:40:57.116Z,49.10
2018-09-18T09:43:27.890Z,48.80
2018-09-18T09:45:57.936Z,48.40
2018-09-18T09:48:31.788Z,48.50
2018-09-18T09:51:06.377Z,48.50
2018-09-18T09:53:37.886Z,48.30
2018-09-18T09:56:10.401Z,48.00
2018-09-18T09:58:47.809Z,47.40
2018-09-18T10:01:24.084Z,46.90
2018-09-18T10:03:57.275Z,46.40
2018-09-18T10:06:28.877Z,46.10
2018-09-18T10:09:01.089Z,46.00
2018-09-18T10:11:34.157Z,45.80
2018-09-18T10:14:05.162Z,45.60
2018-09-18T10:16:36.131Z,45.20
2018-09-18T10:19:09.331Z,45.20
2018-09-18T10:21:54.973Z,44.70
2018-09-18T10:24:30.108Z,44.00
2018-09-18T10:27:07.315Z,44.00
2018-09-18T10:29:42.650Z,43.90
2018-09-18T10:32:14.868Z,43.60
2018-09-18T10:34:48.791Z,43.50
2018-09-18T10:37:19.065Z,43.20
2018-09-18T10:39:57.205Z,42.90
2018-09-18T10:42:27.317Z,42.90
2018-09-18T10:44:58.322Z,42.60
2018-09-18T10:47:36.167Z,42.30
2018-09-18T10:50:11.538Z,41.40
2018-09-18T10:52:41.574Z,41.50
2018-09-18T10:55:12.470Z,41.10
2018-09-18T10:57:43.231Z,41.40
2018-09-18T11:00:14.280Z,40.60
2018-09-18T11:02:44.806Z,40.40
2018-09-18T11:05:15.042Z,38.70
2018-09-18T11:07:46.098Z,38.30
2018-09-18T11:10:16.235Z,38.20
2018-09-18T11:12:47.349Z,37.80
2018-09-18T11:15:17.213Z,37.60
2018-09-18T11:17:46.808Z,36.90
2018-09-18T11:20:18.226Z,36.80
2018-09-18T11:22:50.437Z,36.40
2018-09-18T11:25:32.511Z,36.40
2018-09-18T11:28:02.918Z,36.20
2018-09-18T11:30:37.065Z,36.20
2018-09-18T11:33:06.918Z,35.80
2018-09-18T11:35:44.841Z,35.60
2018-09-18T11:38:20.490Z,35.60
2018-09-18T11:40:57.430Z,35.20
2018-09-18T11:43:31.363Z,35.00
2018-09-18T11:46:02.476Z,34.60
2018-09-18T11:51:35.930Z,34.30
2018-09-18T11:54:06.409Z,34.10
2018-09-18T11:56:37.395Z,34.60
2018-09-18T11:59:13.417Z,33.70
2018-09-18T12:01:43.152Z,33.60
2018-09-18T12:04:15.761Z,33.40
2018-09-18T12:06:46.593Z,33.30
2018-09-18T12:09:16.653Z,33.00
2018-09-18T12:11:47.697Z,32.80
2018-09-18T12:14:18.546Z,32.50
2018-09-18T12:16:48.752Z,32.10
2018-09-18T12:19:19.220Z,31.90
2018-09-18T12:21:49.028Z,31.80
2018-09-18T12:24:19.318Z,31.60
2018-09-18T12:26:49.484Z,31.30
2018-09-18T12:29:22.039Z,31.10
2018-09-18T12:31:52.087Z,30.70
2018-09-18T12:34:22.310Z,30.20
2018-09-18T12:36:53.640Z,29.90
2018-09-18T12:39:27.797Z,29.90
2018-09-18T12:41:57.839Z,29.50
2018-09-18T12:44:28.833Z,29.10
2018-09-18T12:47:06.064Z,29.20
2018-09-18T12:49:40.750Z,29.30
2018-09-18T12:52:12.986Z,29.20
2018-09-18T12:54:44.496Z,28.90
2018-09-18T12:58:15.301Z,28.90
2018-09-18T13:01:37.095Z,28.70
2018-09-18T13:04:22.698Z,28.50
2018-09-18T13:06:59.558Z,28.30
2018-09-18T13:09:43.737Z,28.20
2018-09-18T13:12:23.564Z,27.90
2018-09-18T13:14:54.608Z,27.30
2018-09-18T13:17:25.447Z,27.60
2018-09-18T13:19:56.817Z,27.60
2018-09-18T13:22:43.671Z,27.80
2018-09-18T13:25:22.614Z,27.80
2018-09-18T13:28:03.827Z,27.20
2018-09-18T13:30:38.301Z,27.20
2018-09-18T13:33:33.783Z,27.50
2018-09-18T13:36:12.735Z,27.80
2018-09-18T13:38:44.007Z,27.70
2018-09-18T13:41:13.942Z,27.70
2018-09-18T13:43:59.761Z,27.70
2018-09-18T13:46:39.275Z,27.90
2018-09-18T13:49:19.860Z,28.00
2018-09-18T13:51:55.325Z,28.10
2018-09-18T13:54:27.035Z,28.00
2018-09-18T13:56:58.710Z,28.10
2018-09-18T13:59:39.620Z,28.10
2018-09-18T14:04:57.457Z,28.10
2018-09-18T14:07:29.088Z,28.10
2018-09-18T14:09:59.096Z,28.20
2018-09-18T14:12:32.257Z,28.20
2018-09-18T14:15:07.248Z,28.10
2018-09-18T14:17:37.741Z,28.20
2018-09-18T14:20:10.234Z,28.10
2018-09-18T14:22:40.126Z,28.00
2018-09-18T14:25:10.865Z,27.90
2018-09-18T14:27:50.146Z,28.20
2018-09-18T14:30:19.960Z,28.10
2018-09-18T14:32:49.604Z,28.10
2018-09-18T14:35:20.435Z,28.20
2018-09-18T14:37:55.020Z,28.30
2018-09-18T14:40:30.012Z,28.30
2018-09-18T14:42:59.970Z,28.30
2018-09-18T14:45:32.904Z,28.10
2018-09-18T14:48:15.155Z,27.90
2018-09-18T14:51:13.960Z,28.10
2018-09-18T14:53:47.507Z,28.20
2018-09-18T14:56:18.183Z,28.30
2018-09-18T14:58:51.297Z,28.50
2018-09-18T15:01:21.120Z,28.50
2018-09-18T15:03:51.483Z,28.60
2018-09-18T15:06:22.421Z,29.00
2018-09-18T15:08:53.032Z,29.20
2018-09-18T15:11:22.890Z,29.30
2018-09-18T15:13:56.459Z,29.40
2018-09-18T15:16:30.384Z,29.50
2018-09-18T15:19:00.503Z,29.70
2018-09-18T15:21:33.403Z,30.00
2018-09-18T15:24:03.153Z,30.00
2018-09-18T15:26:34.344Z,30.20
2018-09-18T15:29:05.747Z,30.30
2018-09-18T15:31:36.681Z,30.30
2018-09-18T15:34:07.523Z,30.20
2018-09-18T15:36:40.102Z,30.00
2018-09-18T15:39:14.504Z,30.00
2018-09-18T15:41:53.182Z,30.00
2018-09-18T15:44:25.185Z,30.10
2018-09-18T15:46:54.842Z,30.30
2018-09-18T15:49:25.812Z,30.40
2018-09-18T15:51:55.477Z,30.50
2018-09-18T15:54:25.813Z,30.60
2018-09-18T15:56:55.164Z,30.80
2018-09-18T15:59:25.437Z,30.90
2018-09-18T16:01:55.018Z,30.90
2018-09-18T16:04:26.329Z,30.90
2018-09-18T16:07:11.104Z,30.90
2018-09-18T16:10:19.078Z,31.10
2018-09-18T16:12:48.808Z,31.10
2018-09-18T16:15:19.559Z,31.10
2018-09-18T16:17:50.036Z,31.10
2018-09-18T16:20:20.563Z,31.20
2018-09-18T16:22:51.547Z,31.40
2018-09-18T16:25:40.592Z,31.40
2018-09-18T16:28:27.332Z,31.40
2018-09-18T16:31:00.959Z,31.60
2018-09-18T16:33:32.990Z,31.70
2018-09-18T16:36:04.142Z,31.80
2018-09-18T16:38:34.882Z,31.90
2018-09-18T16:41:04.900Z,31.90
2018-09-18T16:43:34.766Z,32.00
2018-09-18T16:46:04.394Z,32.20
2018-09-18T16:48:41.506Z,32.40
2018-09-18T16:51:12.259Z,32.50
2018-09-18T16:53:43.631Z,32.60
2018-09-18T16:56:13.700Z,32.70
2018-09-18T16:58:43.715Z,32.80
2018-09-18T17:01:14.555Z,33.20
2018-09-18T17:04:01.879Z,33.50
2018-09-18T17:06:47.104Z,33.50
2018-09-18T17:09:18.490Z,33.70
2018-09-18T17:11:49.937Z,33.90
2018-09-18T17:14:23.210Z,34.00
2018-09-18T17:16:54.596Z,34.10
2018-09-18T17:19:24.747Z,34.40
2018-09-18T17:21:54.719Z,34.60
2018-09-18T17:24:25.787Z,35.10
2018-09-18T17:26:57.277Z,34.90
2018-09-18T17:29:27.812Z,35.00
2018-09-18T17:31:57.832Z,35.20
2018-09-18T17:34:30.106Z,35.40
2018-09-18T17:37:02.167Z,35.50
2018-09-18T17:39:32.281Z,35.70
2018-09-18T17:42:04.441Z,36.00
2018-09-18T17:44:35.726Z,36.10
2018-09-18T17:47:06.609Z,36.30
2018-09-18T17:49:38.351Z,36.40
2018-09-18T17:52:09.854Z,36.60
2018-09-18T17:54:40.817Z,36.70
2018-09-18T17:57:12.291Z,36.80
2018-09-18T17:59:44.101Z,37.00
2018-09-18T18:02:14.407Z,37.00
2018-09-18T18:04:47.855Z,37.20
2018-09-18T18:07:20.311Z,37.30
2018-09-18T18:09:52.256Z,37.40
2018-09-18T18:12:21.811Z,37.60
2018-09-18T18:14:52.952Z,37.70
2018-09-18T18:17:24.078Z,37.80
2018-09-18T18:19:55.497Z,38.10
2018-09-18T18:22:26.452Z,38.20
2018-09-18T18:24:56.780Z,38.10
2018-09-18T18:27:27.899Z,38.10
2018-09-18T18:30:00.597Z,38.40
2018-09-18T18:32:33.031Z,38.50
2018-09-18T18:36:15.944Z,38.60
2018-09-18T18:38:49.309Z,38.80
2018-09-18T18:41:21.255Z,38.80
2018-09-18T18:43:52.138Z,39.20
2018-09-18T18:46:28.597Z,39.50
2018-09-18T18:48:58.274Z,39.60
2018-09-18T18:51:27.815Z,39.70
2018-09-18T18:53:58.399Z,39.90
2018-09-18T18:56:34.140Z,40.20
2018-09-18T18:59:06.104Z,40.20
2018-09-18T19:01:37.812Z,40.30
2018-09-18T19:04:07.813Z,40.40
2018-09-18T19:06:38.455Z,40.40
2018-09-18T19:09:12.849Z,40.70
2018-09-18T19:11:51.902Z,40.90
2018-09-18T19:14:28.423Z,40.80
2018-09-18T19:17:01.320Z,41.10
2018-09-18T19:19:31.830Z,41.00
2018-09-18T19:22:07.244Z,41.00
2018-09-18T19:24:37.456Z,41.10
2018-09-18T19:27:08.401Z,41.10
2018-09-18T19:29:45.381Z,41.10
2018-09-18T19:32:22.038Z,41.20
2018-09-18T19:34:54.413Z,41.20
2018-09-18T19:37:28.213Z,41.20
2018-09-18T19:40:07.238Z,41.20
2018-09-18T19:42:40.524Z,41.20
2018-09-18T19:45:14.781Z,41.30
2018-09-18T19:48:02.607Z,41.30
2018-09-18T19:50:42.676Z,41.20
2018-09-18T19:53:17.726Z,41.40
2018-09-18T19:56:00.725Z,41.40
2018-09-18T19:58:33.102Z,41.40
2018-09-18T20:01:05.417Z,41.40
2018-09-18T20:03:39.529Z,41.40
2018-09-18T20:06:10.055Z,41.60
2018-09-18T20:08:42.679Z,41.60
2018-09-18T20:11:32.129Z,41.50
2018-09-18T20:14:15.660Z,41.60
2018-09-18T20:16:48.287Z,41.60
2018-09-18T20:19:21.877Z,42.40
2018-09-18T20:21:59.413Z,41.70
2018-09-18T20:24:34.766Z,41.80
2018-09-18T20:33:39.381Z,41.90
2018-09-18T20:36:26.830Z,41.90
2018-09-18T20:38:59.518Z,41.70
2018-09-18T20:41:32.718Z,41.90
2018-09-18T20:44:04.738Z,42.90
2018-09-18T20:46:37.081Z,42.90
2018-09-18T20:49:13.442Z,42.40
2018-09-18T20:51:51.788Z,42.40
2018-09-18T20:54:22.324Z,42.50
2018-09-18T20:57:00.289Z,42.50
2018-09-18T20:59:35.779Z,42.50
2018-09-18T21:02:11.677Z,42.50
2018-09-18T21:04:42.514Z,42.60
2018-09-18T21:07:12.424Z,42.70
2018-09-18T21:09:45.570Z,42.60
2018-09-18T21:12:16.145Z,42.70
2018-09-18T21:14:46.061Z,42.80
2018-09-18T21:17:16.301Z,42.90
2018-09-18T21:19:49.305Z,42.80
2018-09-18T21:22:23.851Z,42.90
2018-09-18T21:25:10.327Z,42.90
2018-09-18T21:27:42.389Z,43.00
2018-09-18T21:30:13.678Z,43.10
2018-09-18T21:32:43.370Z,43.20
2018-09-18T21:35:13.701Z,43.20
2018-09-18T21:37:44.319Z,43.20
2018-09-18T21:40:14.131Z,43.40
2018-09-18T21:42:44.915Z,43.40
2018-09-18T21:45:18.825Z,43.40
2018-09-18T21:48:04.225Z,43.50
2018-09-18T21:50:38.551Z,43.60
2018-09-18T21:53:20.125Z,43.70
2018-09-18T21:55:57.798Z,43.70
2018-09-18T21:58:36.377Z,43.70
2018-09-18T22:01:10.328Z,43.80
2018-09-18T22:03:46.385Z,43.80
2018-09-18T22:06:29.541Z,43.80
2018-09-18T22:09:01.465Z,43.90
2018-09-18T22:11:33.145Z,43.90
2018-09-18T22:14:04.376Z,44.10
2018-09-18T22:16:41.280Z,44.00
2018-09-18T22:19:18.128Z,44.00
2018-09-18T22:21:52.081Z,44.10
2018-09-18T22:24:24.972Z,44.20
2018-09-18T22:26:56.930Z,44.20
2018-09-18T22:29:31.404Z,44.20
2018-09-18T22:32:01.102Z,44.30
2018-09-18T22:34:32.716Z,44.30
2018-09-18T22:37:04.347Z,44.40
2018-09-18T22:39:34.813Z,44.50
2018-09-18T22:42:08.280Z,44.60
2018-09-18T22:44:38.570Z,44.70
2018-09-18T22:47:09.808Z,44.70
2018-09-18T22:49:51.466Z,44.80
2018-09-18T22:52:22.197Z,45.30
2018-09-18T22:54:54.013Z,45.00
2018-09-18T22:57:25.268Z,44.90
2018-09-18T22:59:59.728Z,45.10
2018-09-18T23:02:29.635Z,45.20
2018-09-18T23:05:00.053Z,45.30
2018-09-18T23:07:29.949Z,45.40
2018-09-18T23:10:01.052Z,45.50
2018-09-18T23:12:32.922Z,45.50
2018-09-18T23:15:04.378Z,45.70
2018-09-18T23:17:36.026Z,45.70
2018-09-18T23:20:08.269Z,45.80
2018-09-18T23:22:38.319Z,45.80
2018-09-18T23:25:11.813Z,45.70
2018-09-18T23:27:42.554Z,46.30
2018-09-18T23:30:13.271Z,45.70
2018-09-18T23:32:44.423Z,45.70
2018-09-18T23:35:15.818Z,45.70
2018-09-18T23:37:47.528Z,45.80
2018-09-18T23:40:18.158Z,45.80
2018-09-18T23:42:51.952Z,45.80
2018-09-18T23:45:22.300Z,45.90
2018-09-18T23:47:53.849Z,46.00
2018-09-18T23:50:24.771Z,46.00
2018-09-18T23:52:55.217Z,46.10
2018-09-18T23:55:29.109Z,46.20
2018-09-18T23:58:02.112Z,46.20
